createdAt,value
2023-03-06T00:00:49.438Z,99174.25
2023-03-06T00:03:17.061Z,99171.63
2023-03-06T00:05:44.711Z,99169.91
2023-03-06T00:08:12.647Z,99175.25
2023-03-06T00:10:41.138Z,99173.50
2023-03-06T00:13:13.827Z,99163.69
2023-03-06T00:15:41.763Z,99172.53
2023-03-06T00:18:09.535Z,99160.16
2023-03-06T00:20:37.418Z,99155.97
2023-03-06T00:23:05.019Z,99150.84
2023-03-06T00:25:34.833Z,99161.31
2023-03-06T00:28:02.482Z,99156.09
2023-03-06T00:30:31.984Z,99142.66
2023-03-06T00:32:59.667Z,99133.94
2023-03-06T00:35:27.425Z,99140.97
2023-03-06T00:37:55.010Z,99132.22
2023-03-06T00:40:23.056Z,99134.84
2023-03-06T00:42:50.682Z,99132.22
2023-03-06T00:45:18.772Z,99133.97
2023-03-06T00:47:47.630Z,99135.00
2023-03-06T00:50:15.193Z,99124.34
2023-03-06T00:52:42.909Z,99129.56
2023-03-06T00:55:11.189Z,99123.44
2023-03-06T00:57:38.906Z,99117.16
2023-03-06T01:00:07.952Z,99118.84
2023-03-06T01:02:35.743Z,99117.16
2023-03-06T01:05:04.950Z,99107.63
2023-03-06T01:07:34.000Z,99100.66
2023-03-06T01:10:01.528Z,99109.38
2023-03-06T01:12:29.021Z,99099.88
2023-03-06T01:14:56.627Z,99099.69
2023-03-06T01:17:24.130Z,99105.09
2023-03-06T01:19:51.784Z,99097.19
2023-03-06T01:22:20.578Z,99096.19
2023-03-06T01:24:48.336Z,99086.59
2023-03-06T01:27:15.843Z,99092.84
2023-03-06T01:29:43.367Z,99080.25
2023-03-06T01:32:10.902Z,99081.44
2023-03-06T01:34:38.366Z,99074.72
2023-03-06T01:37:06.088Z,99075.44
2023-03-06T01:39:34.908Z,99075.31
2023-03-06T01:42:02.395Z,99067.97
2023-03-06T01:44:29.880Z,99071.78
2023-03-06T01:46:57.366Z,99067.19
2023-03-06T01:49:26.853Z,99071.66
2023-03-06T01:51:57.016Z,99073.47
2023-03-06T01:54:27.474Z,99072.59
2023-03-06T01:56:58.277Z,99062.84
2023-03-06T01:59:26.868Z,99061.84
2023-03-06T02:01:54.678Z,99064.50
2023-03-06T02:04:22.508Z,99071.66
2023-03-06T02:06:50.154Z,99059.16
2023-03-06T02:09:17.729Z,99058.38
2023-03-06T02:11:46.285Z,99055.75
2023-03-06T02:14:16.982Z,99056.72
2023-03-06T02:16:44.868Z,99057.66
2023-03-06T02:19:24.376Z,99060.31
2023-03-06T02:21:51.965Z,99049.69
2023-03-06T02:24:30.641Z,99056.59
2023-03-06T02:27:00.819Z,99051.31
2023-03-06T02:29:29.901Z,99052.28
2023-03-06T02:31:58.852Z,99052.19
2023-03-06T02:34:57.313Z,99045.16
2023-03-06T02:37:27.828Z,99047.19
2023-03-06T02:40:00.959Z,99048.72
2023-03-06T02:42:29.856Z,99036.38
2023-03-06T02:44:59.402Z,99045.31
2023-03-06T02:47:27.125Z,99038.38
2023-03-06T02:49:54.601Z,99034.84
2023-03-06T02:52:22.116Z,99025.78
2023-03-06T02:54:49.575Z,99034.84
2023-03-06T02:57:17.122Z,99038.22
2023-03-06T02:59:46.147Z,99041.88
2023-03-06T03:02:13.668Z,99040.75
2023-03-06T03:04:41.419Z,99033.84
2023-03-06T03:07:09.168Z,99032.78
2023-03-06T03:09:37.248Z,99024.09
2023-03-06T03:12:06.721Z,99026.66
2023-03-06T03:14:34.423Z,99018.75
2023-03-06T03:17:03.757Z,99021.34
2023-03-06T03:19:31.279Z,99028.44
2023-03-06T03:21:59.021Z,99021.34
2023-03-06T03:24:26.625Z,99017.72
2023-03-06T03:26:54.135Z,99018.75
2023-03-06T03:29:21.652Z,99014.25
2023-03-06T03:31:49.257Z,99011.63
2023-03-06T03:34:18.904Z,99007.31
2023-03-06T03:36:46.883Z,99009.78
2023-03-06T03:39:14.773Z,99012.44
2023-03-06T03:41:42.309Z,99015.03
2023-03-06T03:44:10.288Z,99008.09
2023-03-06T03:46:37.889Z,99008.97
2023-03-06T03:49:05.523Z,99002.63
2023-03-06T03:51:34.859Z,98995.56
2023-03-06T03:54:02.601Z,98999.22
2023-03-06T03:56:30.099Z,99002.63
2023-03-06T03:58:57.637Z,98994.03
2023-03-06T04:01:25.272Z,98984.22
2023-03-06T04:03:52.949Z,98985.94
2023-03-06T04:06:20.778Z,98993.09
2023-03-06T04:08:49.579Z,98985.16
2023-03-06T04:11:17.097Z,98981.66
2023-03-06T04:13:44.730Z,98979.66
2023-03-06T04:16:12.483Z,98973.44
2023-03-06T04:18:40.021Z,98970.03
2023-03-06T04:21:07.725Z,98973.66
2023-03-06T04:23:35.401Z,98969.13
2023-03-06T04:26:04.647Z,98967.44
2023-03-06T04:28:32.146Z,98969.19
2023-03-06T04:30:59.719Z,98967.34
2023-03-06T04:33:27.241Z,98969.13
2023-03-06T04:35:54.760Z,98961.16
2023-03-06T04:38:22.299Z,98966.56
2023-03-06T04:40:50.129Z,98967.44
2023-03-06T04:43:19.082Z,98971.81
2023-03-06T04:45:46.712Z,98973.09
2023-03-06T04:48:15.615Z,98972.94
2023-03-06T04:50:44.452Z,98969.28
2023-03-06T04:53:12.004Z,98960.25
2023-03-06T04:55:39.536Z,98960.25
2023-03-06T04:58:07.038Z,98954.34
2023-03-06T05:00:35.855Z,98953.25
2023-03-06T05:03:03.481Z,98959.47
2023-03-06T05:05:30.998Z,98949.75
2023-03-06T05:07:58.465Z,98945.38
2023-03-06T05:10:25.953Z,98947.94
2023-03-06T05:12:53.530Z,98948.06
2023-03-06T05:15:21.143Z,98947.22
2023-03-06T05:17:50.129Z,98950.75
2023-03-06T05:20:18.384Z,98950.69
2023-03-06T05:22:46.046Z,98940.22
2023-03-06T05:25:13.544Z,98943.81
2023-03-06T05:27:41.554Z,98945.56
2023-03-06T05:30:12.633Z,98943.69
2023-03-06T05:32:40.189Z,98942.84
2023-03-06T05:35:09.937Z,98941.94
2023-03-06T05:37:37.401Z,98940.94
2023-03-06T05:40:09.477Z,98937.56
2023-03-06T05:42:36.997Z,98934.22
2023-03-06T05:45:05.347Z,98932.16
2023-03-06T05:47:33.428Z,98934.06
2023-03-06T05:50:00.958Z,98944.59
2023-03-06T05:52:29.768Z,98940.13
2023-03-06T05:54:57.338Z,98936.69
2023-03-06T05:57:25.469Z,98927.78
2023-03-06T05:59:52.987Z,98935.88
2023-03-06T06:02:20.680Z,98936.53
2023-03-06T06:04:48.316Z,98925.31
2023-03-06T06:07:17.313Z,98926.19
2023-03-06T06:09:46.539Z,98927.84
2023-03-06T06:12:14.476Z,98929.66
2023-03-06T06:14:41.949Z,98928.56
2023-03-06T06:17:09.620Z,98933.94
2023-03-06T06:19:37.129Z,98928.59
2023-03-06T06:22:04.755Z,98934.72
2023-03-06T06:24:32.981Z,98926.88
2023-03-06T06:27:03.861Z,98926.78
2023-03-06T06:29:32.051Z,98925.06
2023-03-06T06:31:59.822Z,98926.03
2023-03-06T06:34:28.118Z,98925.97
2023-03-06T06:36:55.847Z,98929.63
2023-03-06T06:39:24.188Z,98924.16
2023-03-06T06:42:09.538Z,98920.72
2023-03-06T06:44:41.774Z,98922.59
2023-03-06T06:47:25.800Z,98921.63
2023-03-06T06:49:54.931Z,98925.19
2023-03-06T06:52:22.777Z,98924.16
2023-03-06T06:54:50.311Z,98923.72
2023-03-06T06:57:18.103Z,98918.03
2023-03-06T06:59:46.931Z,98918.78
2023-03-06T07:02:15.744Z,98922.22
2023-03-06T07:05:00.403Z,98917.19
2023-03-06T07:07:30.753Z,98918.84
2023-03-06T07:09:59.416Z,98918.81
2023-03-06T07:12:27.064Z,98919.84
2023-03-06T07:14:55.982Z,98916.94
2023-03-06T07:17:23.621Z,98925.69
2023-03-06T07:19:51.376Z,98916.63
2023-03-06T07:22:19.041Z,98921.03
2023-03-06T07:24:46.679Z,98928.94
2023-03-06T07:27:14.172Z,98923.16
2023-03-06T07:29:43.530Z,98924.31
2023-03-06T07:32:12.738Z,98931.88
2023-03-06T07:34:40.265Z,98929.88
2023-03-06T07:37:07.773Z,98934.44
2023-03-06T07:39:35.692Z,98935.91
2023-03-06T07:42:03.281Z,98932.38
2023-03-06T07:44:30.885Z,98938.63
2023-03-06T07:46:58.467Z,98929.75
2023-03-06T07:49:27.376Z,98937.34
2023-03-06T07:51:54.869Z,98934.28
2023-03-06T07:54:22.378Z,98937.31
2023-03-06T07:56:51.218Z,98931.72
2023-03-06T07:59:18.760Z,98932.72
2023-03-06T08:01:46.572Z,98936.31
2023-03-06T08:04:14.222Z,98939.03
2023-03-06T08:06:43.016Z,98933.47
2023-03-06T08:09:10.791Z,98939.53
2023-03-06T08:11:38.279Z,98938.34
2023-03-06T08:14:05.891Z,98934.22
2023-03-06T08:16:33.471Z,98933.53
2023-03-06T08:19:00.974Z,98938.94
2023-03-06T08:21:29.613Z,98945.03
2023-03-06T08:23:58.616Z,98937.59
2023-03-06T08:26:27.689Z,98936.47
2023-03-06T08:28:56.762Z,98939.72
2023-03-06T08:31:29.742Z,98938.16
2023-03-06T08:33:57.688Z,98940.09
2023-03-06T08:36:25.277Z,98933.69
2023-03-06T08:38:53.008Z,98941.16
2023-03-06T08:41:21.914Z,98937.88
2023-03-06T08:43:49.620Z,98934.50
2023-03-06T08:46:18.759Z,98946.25
2023-03-06T08:48:47.826Z,98942.09
2023-03-06T08:51:15.846Z,98941.13
2023-03-06T08:53:44.292Z,98941.78
2023-03-06T08:56:16.718Z,98948.22
2023-03-06T08:58:45.746Z,98943.09
2023-03-06T09:01:17.228Z,98955.41
2023-03-06T09:03:45.126Z,98944.63
2023-03-06T09:06:13.262Z,98941.06
2023-03-06T09:08:43.037Z,98951.03
2023-03-06T09:11:11.878Z,98947.53
2023-03-06T09:13:39.407Z,98956.50
2023-03-06T09:16:08.893Z,98953.91
2023-03-06T09:18:36.795Z,98959.16
2023-03-06T09:21:05.425Z,98950.41
2023-03-06T09:23:33.219Z,98956.47
2023-03-06T09:26:03.098Z,98957.00
2023-03-06T09:28:30.654Z,98956.16
2023-03-06T09:30:58.221Z,98950.31
2023-03-06T09:33:28.690Z,98957.31
2023-03-06T09:35:58.540Z,98965.53
2023-03-06T09:38:27.799Z,98952.00
2023-03-06T09:41:04.648Z,98954.88
2023-03-06T09:43:35.352Z,98955.88
2023-03-06T09:46:08.350Z,98954.66
2023-03-06T09:48:40.089Z,98948.13
2023-03-06T09:51:11.756Z,98956.78
2023-03-06T09:53:49.604Z,98953.72
2023-03-06T09:56:18.910Z,98945.41
2023-03-06T09:58:50.023Z,98949.06
2023-03-06T10:01:21.000Z,98939.06
2023-03-06T10:03:53.320Z,98951.38
2023-03-06T10:06:25.021Z,98952.44
2023-03-06T10:08:55.109Z,98944.22
2023-03-06T10:11:26.060Z,98937.06
2023-03-06T10:13:55.439Z,98945.91
2023-03-06T10:16:27.489Z,98938.56
2023-03-06T10:18:58.977Z,98931.69
2023-03-06T10:21:34.518Z,98939.81
2023-03-06T10:24:08.471Z,98935.34
2023-03-06T10:26:40.265Z,98932.47
2023-03-06T10:29:39.206Z,98939.34
2023-03-06T10:32:12.915Z,98933.44
2023-03-06T10:34:42.161Z,98938.94
2023-03-06T10:37:19.378Z,98936.31
2023-03-06T10:39:47.305Z,98941.47
2023-03-06T10:42:14.851Z,98948.28
2023-03-06T10:44:42.395Z,98935.91
2023-03-06T10:47:37.520Z,98947.72
2023-03-06T10:50:17.514Z,98944.38
2023-03-06T10:52:45.013Z,98945.09
2023-03-06T10:55:27.630Z,98948.25
2023-03-06T10:57:55.145Z,98945.31
2023-03-06T11:00:35.972Z,98949.88
2023-03-06T11:03:19.380Z,98943.56
2023-03-06T11:05:57.834Z,98951.41
2023-03-06T11:08:25.323Z,98949.78
2023-03-06T11:10:57.844Z,98958.09
2023-03-06T11:13:27.297Z,98957.63
2023-03-06T11:16:00.676Z,98969.28
2023-03-06T11:18:34.928Z,98963.47
2023-03-06T11:21:07.470Z,98963.47
2023-03-06T11:23:42.338Z,98961.78
2023-03-06T11:26:25.904Z,98960.00
2023-03-06T11:29:02.035Z,98958.19
2023-03-06T11:31:32.517Z,98959.75
2023-03-06T11:34:05.771Z,98951.59
2023-03-06T11:36:39.718Z,98951.69
2023-03-06T11:39:19.990Z,98949.19
2023-03-06T11:41:53.357Z,98963.34
2023-03-06T11:44:26.842Z,98950.75
2023-03-06T11:47:07.300Z,98945.28
2023-03-06T11:49:40.970Z,98948.44
2023-03-06T11:52:14.409Z,98945.22
2023-03-06T11:54:41.908Z,98953.69
2023-03-06T11:57:14.137Z,98949.25
2023-03-06T12:00:04.797Z,98947.63
2023-03-06T12:02:40.348Z,98956.88
2023-03-06T12:05:24.485Z,98949.88
2023-03-06T12:07:58.809Z,98956.09
2023-03-06T12:10:31.168Z,98948.94
2023-03-06T12:13:15.373Z,98959.72
2023-03-06T12:15:53.209Z,98946.34
2023-03-06T12:18:34.141Z,98949.09
2023-03-06T12:21:07.744Z,98943.78
2023-03-06T12:23:55.045Z,98942.91
2023-03-06T12:26:38.421Z,98952.69
2023-03-06T12:29:16.617Z,98949.19
2023-03-06T12:31:57.117Z,98947.31
2023-03-06T12:34:33.134Z,98956.34
2023-03-06T12:37:10.457Z,98962.56
2023-03-06T12:39:51.371Z,98951.13
2023-03-06T12:42:35.040Z,98955.31
2023-03-06T12:45:23.221Z,98961.81
2023-03-06T12:47:56.000Z,98951.03
2023-03-06T12:50:25.912Z,98956.47
2023-03-06T12:52:55.112Z,98953.75
2023-03-06T12:55:26.038Z,98955.47
2023-03-06T12:57:54.078Z,98946.81
2023-03-06T13:01:05.055Z,98955.63
2023-03-06T13:03:39.340Z,98958.22
2023-03-06T13:06:36.483Z,98950.88
2023-03-06T13:09:18.886Z,98947.19
2023-03-06T13:12:00.603Z,98950.28
2023-03-06T13:14:32.134Z,98935.81
2023-03-06T13:17:25.249Z,98936.38
2023-03-06T13:20:14.351Z,98937.69
2023-03-06T13:22:42.937Z,98940.28
2023-03-06T13:25:36.617Z,98936.72
2023-03-06T13:28:07.730Z,98946.72
2023-03-06T13:30:46.295Z,98934.16
2023-03-06T13:33:54.398Z,98928.03
2023-03-06T13:36:26.128Z,98928.50
2023-03-06T13:38:56.449Z,98932.28
2023-03-06T13:41:37.451Z,98921.88
2023-03-06T13:44:49.601Z,98915.44
2023-03-06T13:48:05.744Z,98919.66
2023-03-06T13:50:47.095Z,98916.81
2023-03-06T13:53:27.332Z,98920.84
2023-03-06T13:56:04.187Z,98924.59
2023-03-06T13:58:42.661Z,98919.53
2023-03-06T14:01:24.540Z,98922.28
2023-03-06T14:04:05.348Z,98924.72
2023-03-06T14:07:01.265Z,98922.28
2023-03-06T14:09:30.390Z,98913.28
2023-03-06T14:12:00.687Z,98911.88
2023-03-06T14:14:39.823Z,98910.03
2023-03-06T14:17:20.158Z,98921.25
2023-03-06T14:19:47.965Z,98915.66
2023-03-06T14:22:18.032Z,98917.84
2023-03-06T14:24:53.930Z,98926.91
2023-03-06T14:27:21.766Z,98928.75
2023-03-06T14:29:49.857Z,98923.91
2023-03-06T14:32:22.645Z,98923.25
2023-03-06T14:34:50.152Z,98929.97
2023-03-06T14:37:20.969Z,98916.97
2023-03-06T14:39:48.532Z,98914.66
2023-03-06T14:42:19.418Z,98915.06
2023-03-06T14:44:47.145Z,98903.91
2023-03-06T14:47:23.779Z,98901.16
2023-03-06T14:50:24.798Z,98906.88
2023-03-06T14:52:55.462Z,98903.75
2023-03-06T14:55:24.947Z,98908.47
2023-03-06T14:57:55.012Z,98913.25
2023-03-06T15:00:24.079Z,98904.47
2023-03-06T15:02:55.029Z,98910.81
2023-03-06T15:05:24.606Z,98908.31
2023-03-06T15:07:52.620Z,98902.06
2023-03-06T15:10:22.971Z,98911.16
2023-03-06T15:12:50.474Z,98910.53
2023-03-06T15:15:31.214Z,98897.69
2023-03-06T15:18:00.198Z,98902.38
2023-03-06T15:20:45.519Z,98893.25
2023-03-06T15:23:22.046Z,98891.09
2023-03-06T15:26:29.438Z,98889.06
2023-03-06T15:29:09.078Z,98888.84
2023-03-06T15:31:38.142Z,98893.84
2023-03-06T15:34:18.628Z,98892.31
2023-03-06T15:36:48.118Z,98889.50
2023-03-06T15:39:29.883Z,98892.59
2023-03-06T15:41:58.877Z,98895.75
2023-03-06T15:44:26.839Z,98899.25
2023-03-06T15:47:07.724Z,98893.91
2023-03-06T15:49:37.658Z,98881.00
2023-03-06T15:52:05.305Z,98879.31
2023-03-06T15:54:33.166Z,98888.34
2023-03-06T15:57:01.005Z,98881.72
2023-03-06T15:59:32.980Z,98877.16
2023-03-06T16:02:02.053Z,98877.88
2023-03-06T16:04:29.583Z,98880.47
2023-03-06T16:06:58.414Z,98883.63
2023-03-06T16:09:25.986Z,98887.59
2023-03-06T16:11:53.463Z,98890.94
2023-03-06T16:14:23.661Z,98888.94
2023-03-06T16:16:51.816Z,98893.75
2023-03-06T16:19:26.294Z,98883.09
2023-03-06T16:21:54.917Z,98886.47
2023-03-06T16:24:26.009Z,98885.41
2023-03-06T16:26:54.905Z,98879.25
2023-03-06T16:29:24.362Z,98884.00
2023-03-06T16:31:52.334Z,98880.53
2023-03-06T16:34:19.970Z,98885.97
2023-03-06T16:36:48.848Z,98884.53
2023-03-06T16:39:17.444Z,98879.19
2023-03-06T16:41:47.137Z,98882.00
2023-03-06T16:44:14.912Z,98885.56
2023-03-06T16:46:45.628Z,98891.44
2023-03-06T16:49:16.800Z,98886.22
2023-03-06T16:51:44.354Z,98884.09
2023-03-06T16:54:12.259Z,98894.56
2023-03-06T16:56:39.733Z,98887.38
2023-03-06T16:59:08.582Z,98884.03
2023-03-06T17:01:36.192Z,98887.84
2023-03-06T17:04:04.110Z,98883.22
2023-03-06T17:06:31.658Z,98882.06
2023-03-06T17:08:59.747Z,98884.13
2023-03-06T17:11:27.411Z,98894.53
2023-03-06T17:13:55.691Z,98891.22
2023-03-06T17:16:24.490Z,98891.91
2023-03-06T17:18:53.053Z,98895.09
2023-03-06T17:21:20.619Z,98898.69
2023-03-06T17:23:48.082Z,98900.63
2023-03-06T17:26:18.132Z,98906.84
2023-03-06T17:28:46.362Z,98905.63
2023-03-06T17:31:15.102Z,98904.72
2023-03-06T17:33:44.243Z,98902.94
2023-03-06T17:36:11.931Z,98900.72
2023-03-06T17:38:39.419Z,98913.47
2023-03-06T17:41:07.969Z,98911.22
2023-03-06T17:43:36.043Z,98908.00
2023-03-06T17:46:04.329Z,98904.63
2023-03-06T17:48:31.838Z,98911.59
2023-03-06T17:51:01.117Z,98900.50
2023-03-06T17:53:28.760Z,98905.75
2023-03-06T17:55:57.934Z,98911.28
2023-03-06T17:58:25.751Z,98910.00
2023-03-06T18:00:53.384Z,98905.59
2023-03-06T18:03:20.986Z,98900.00
2023-03-06T18:05:48.466Z,98900.56
2023-03-06T18:08:17.250Z,98902.28
2023-03-06T18:10:44.842Z,98904.09
2023-03-06T18:13:12.523Z,98902.91
2023-03-06T18:15:40.425Z,98906.06
2023-03-06T18:18:08.774Z,98901.53
2023-03-06T18:20:41.395Z,98903.75
2023-03-06T18:23:08.933Z,98889.56
2023-03-06T18:25:37.711Z,98894.41
2023-03-06T18:28:05.968Z,98893.53
2023-03-06T18:30:35.702Z,98897.22
2023-03-06T18:33:03.474Z,98894.53
2023-03-06T18:35:32.640Z,98896.00
2023-03-06T18:38:00.408Z,98883.66
2023-03-06T18:40:27.972Z,98888.16
2023-03-06T18:42:56.801Z,98885.16
2023-03-06T18:45:24.351Z,98890.75
2023-03-06T18:47:51.932Z,98883.47
2023-03-06T18:50:19.678Z,98887.72
2023-03-06T18:52:47.237Z,98880.19
2023-03-06T18:55:14.777Z,98890.53
2023-03-06T18:57:42.371Z,98886.44
2023-03-06T19:00:12.580Z,98885.63
2023-03-06T19:02:40.334Z,98878.41
2023-03-06T19:05:08.504Z,98879.91
2023-03-06T19:07:36.010Z,98878.78
2023-03-06T19:10:03.944Z,98878.97
2023-03-06T19:12:33.838Z,98882.47
2023-03-06T19:15:03.275Z,98882.34
2023-03-06T19:17:32.536Z,98867.13
2023-03-06T19:20:00.161Z,98871.53
2023-03-06T19:22:27.708Z,98875.50
2023-03-06T19:24:55.492Z,98874.66
2023-03-06T19:27:23.009Z,98879.47
2023-03-06T19:29:50.579Z,98875.94
2023-03-06T19:32:18.381Z,98881.25
2023-03-06T19:34:49.950Z,98871.34
2023-03-06T19:37:17.452Z,98855.47
2023-03-06T19:39:45.100Z,98862.06
2023-03-06T19:42:13.926Z,98861.13
2023-03-06T19:44:41.638Z,98859.31
2023-03-06T19:47:09.100Z,98858.34
2023-03-06T19:49:38.083Z,98842.41
2023-03-06T19:52:08.023Z,98845.16
2023-03-06T19:54:35.792Z,98845.97
2023-03-06T19:57:03.467Z,98844.38
2023-03-06T19:59:31.177Z,98839.78
2023-03-06T20:01:58.901Z,98834.53
2023-03-06T20:04:26.555Z,98833.75
2023-03-06T20:06:56.176Z,98835.59
2023-03-06T20:09:25.296Z,98829.66
2023-03-06T20:11:52.804Z,98824.38
2023-03-06T20:14:20.302Z,98825.97
2023-03-06T20:16:47.899Z,98823.94
2023-03-06T20:19:15.518Z,98818.66
2023-03-06T20:21:43.251Z,98813.97
2023-03-06T20:24:16.648Z,98818.28
2023-03-06T20:26:47.328Z,98818.31
2023-03-06T20:29:14.844Z,98811.28
2023-03-06T20:31:42.512Z,98810.59
2023-03-06T20:34:11.702Z,98807.81
2023-03-06T20:36:40.985Z,98803.53
2023-03-06T20:39:10.215Z,98800.03
2023-03-06T20:41:37.949Z,98808.81
2023-03-06T20:44:09.008Z,98803.22
2023-03-06T20:46:37.349Z,98797.03
2023-03-06T20:49:05.626Z,98801.53
2023-03-06T20:51:35.997Z,98787.16
2023-03-06T20:54:04.073Z,98792.50
2023-03-06T20:56:33.066Z,98794.16
2023-03-06T20:59:01.039Z,98780.75
2023-03-06T21:01:32.705Z,98783.47
2023-03-06T21:04:01.186Z,98779.44
2023-03-06T21:06:29.953Z,98772.47
2023-03-06T21:08:57.917Z,98768.88
2023-03-06T21:11:26.030Z,98761.75
2023-03-06T21:13:53.980Z,98767.22
2023-03-06T21:16:24.043Z,98759.03
2023-03-06T21:18:55.157Z,98749.47
2023-03-06T21:21:24.098Z,98749.44
2023-03-06T21:23:52.119Z,98752.22
2023-03-06T21:26:21.667Z,98749.97
2023-03-06T21:28:49.287Z,98746.22
2023-03-06T21:31:18.658Z,98745.19
2023-03-06T21:33:47.155Z,98736.41
2023-03-06T21:36:16.143Z,98738.94
2023-03-06T21:38:43.757Z,98729.69
2023-03-06T21:41:12.633Z,98728.97
2023-03-06T21:43:40.356Z,98724.03
2023-03-06T21:46:08.026Z,98717.13
2023-03-06T21:48:35.736Z,98711.81
2023-03-06T21:51:08.043Z,98712.34
2023-03-06T21:53:37.156Z,98711.56
2023-03-06T21:56:05.830Z,98704.75
2023-03-06T21:58:33.994Z,98699.56
2023-03-06T22:01:01.788Z,98698.72
2023-03-06T22:03:30.190Z,98696.09
2023-03-06T22:05:57.926Z,98690.69
2023-03-06T22:08:25.470Z,98689.75
2023-03-06T22:10:54.299Z,98678.31
2023-03-06T22:13:22.865Z,98679.41
2023-03-06T22:15:52.085Z,98673.25
2023-03-06T22:18:19.759Z,98671.06
2023-03-06T22:20:47.317Z,98668.63
2023-03-06T22:23:15.201Z,98663.66
2023-03-06T22:25:42.720Z,98652.47
2023-03-06T22:28:13.025Z,98640.63
2023-03-06T22:30:40.536Z,98643.53
2023-03-06T22:33:08.216Z,98641.81
2023-03-06T22:35:35.873Z,98631.41
2023-03-06T22:38:04.590Z,98630.97
2023-03-06T22:40:32.297Z,98619.63
2023-03-06T22:42:59.808Z,98620.47
2023-03-06T22:45:28.844Z,98622.13
2023-03-06T22:48:05.612Z,98608.91
2023-03-06T22:50:37.823Z,98604.72
2023-03-06T22:53:05.320Z,98602.97
2023-03-06T22:55:35.349Z,98597.94
2023-03-06T22:58:02.821Z,98592.91
2023-03-06T23:00:31.945Z,98592.69
2023-03-06T23:02:59.476Z,98584.22
2023-03-06T23:05:29.376Z,98582.53
2023-03-06T23:07:57.023Z,98576.97
2023-03-06T23:10:24.604Z,98579.28
2023-03-06T23:12:52.150Z,98586.78
2023-03-06T23:15:19.772Z,98576.84
2023-03-06T23:17:48.602Z,98576.03
2023-03-06T23:20:16.173Z,98569.84
2023-03-06T23:22:44.254Z,98563.66
2023-03-06T23:25:11.904Z,98564.47
2023-03-06T23:27:40.391Z,98560.44
2023-03-06T23:30:09.362Z,98559.75
2023-03-06T23:32:37.111Z,98556.53
2023-03-06T23:35:08.596Z,98545.94
2023-03-06T23:37:36.310Z,98548.19
2023-03-06T23:40:07.839Z,98545.47
2023-03-06T23:42:35.340Z,98542.31
2023-03-06T23:45:03.345Z,98544.66
2023-03-06T23:47:32.632Z,98528.56
2023-03-06T23:50:00.214Z,98533.50
2023-03-06T23:52:29.025Z,98520.50
2023-03-06T23:54:56.505Z,98520.84
2023-03-06T23:57:23.961Z,98507.19
2023-03-06T23:59:51.461Z,98508.06
